createdAt,value
2024-01-07T00:00:37.996Z,-4.63
2024-01-07T00:05:39.641Z,-4.69
2024-01-07T00:10:41.190Z,-4.73
2024-01-07T00:15:42.859Z,-4.76
2024-01-07T00:20:45.718Z,-4.79
2024-01-07T00:25:50.323Z,-4.84
2024-01-07T00:30:56.775Z,-4.87
2024-01-07T00:35:58.440Z,-4.91
2024-01-07T00:41:00.083Z,-5.01
2024-01-07T00:46:01.766Z,-5.07
2024-01-07T00:51:03.572Z,-5.13
2024-01-07T00:56:05.797Z,-5.16
2024-01-07T01:01:09.542Z,-5.21
2024-01-07T01:06:11.532Z,-5.26
2024-01-07T01:11:13.230Z,-5.29
2024-01-07T01:16:14.873Z,-5.30
2024-01-07T01:21:16.813Z,-5.34
2024-01-07T01:26:18.490Z,-5.36
2024-01-07T01:31:20.216Z,-5.39
2024-01-07T01:36:23.137Z,-5.41
2024-01-07T01:41:24.846Z,-5.43
2024-01-07T01:46:26.821Z,-5.46
2024-01-07T01:51:28.648Z,-5.48
2024-01-07T01:56:30.672Z,-5.50
2024-01-07T02:01:32.857Z,-5.54
2024-01-07T02:06:34.797Z,-5.56
2024-01-07T02:11:36.377Z,-5.59
2024-01-07T02:16:37.985Z,-5.61
2024-01-07T02:21:39.580Z,-5.64
2024-01-07T02:26:41.197Z,-5.68
2024-01-07T02:31:42.936Z,-5.67
2024-01-07T02:36:44.693Z,-5.72
2024-01-07T02:41:47.035Z,-5.75
2024-01-07T02:46:48.721Z,-5.78
2024-01-07T02:51:51.202Z,-5.80
2024-01-07T02:56:53.015Z,-5.84
2024-01-07T03:01:54.626Z,-5.87
2024-01-07T03:06:56.416Z,-5.90
2024-01-07T03:11:58.181Z,-5.89
2024-01-07T03:16:59.703Z,-5.91
2024-01-07T03:22:01.338Z,-5.96
2024-01-07T03:27:03.074Z,-6.00
2024-01-07T03:32:04.982Z,-6.02
2024-01-07T03:37:06.593Z,-6.03
2024-01-07T03:42:12.779Z,-6.08
2024-01-07T03:47:14.604Z,-6.11
2024-01-07T03:52:16.241Z,-6.16
2024-01-07T03:57:18.326Z,-6.18
2024-01-07T04:02:19.927Z,-6.19
2024-01-07T04:07:21.496Z,-6.23
2024-01-07T04:12:23.056Z,-6.23
2024-01-07T04:17:25.327Z,-6.23
2024-01-07T04:22:26.986Z,-6.25
2024-01-07T04:27:28.606Z,-6.27
2024-01-07T04:32:30.430Z,-6.32
2024-01-07T04:37:32.196Z,-6.34
2024-01-07T04:42:33.926Z,-6.35
2024-01-07T04:47:35.921Z,-6.36
2024-01-07T04:52:37.599Z,-6.35
2024-01-07T04:57:39.527Z,-6.35
2024-01-07T05:02:41.130Z,-6.37
2024-01-07T05:07:43.192Z,-6.38
2024-01-07T05:12:44.770Z,-6.40
2024-01-07T05:17:46.456Z,-6.41
2024-01-07T05:22:48.062Z,-6.43
2024-01-07T05:27:49.720Z,-6.43
2024-01-07T05:32:51.453Z,-6.45
2024-01-07T05:37:53.146Z,-6.46
2024-01-07T05:42:54.774Z,-6.48
2024-01-07T05:47:56.418Z,-6.45
2024-01-07T05:52:57.989Z,-6.44
2024-01-07T05:57:59.571Z,-6.44
2024-01-07T06:03:38.645Z,-6.43
2024-01-07T06:08:40.358Z,-6.40
2024-01-07T06:13:41.890Z,-6.37
2024-01-07T06:18:43.580Z,-6.38
2024-01-07T06:23:46.041Z,-6.37
2024-01-07T06:28:47.608Z,-6.38
2024-01-07T06:33:49.610Z,-6.37
2024-01-07T06:38:51.344Z,-6.42
2024-01-07T06:43:55.162Z,-6.43
2024-01-07T06:48:56.804Z,-6.42
2024-01-07T06:53:58.376Z,-6.41
2024-01-07T06:58:59.930Z,-6.40
2024-01-07T07:04:02.087Z,-6.40
2024-01-07T07:09:03.766Z,-6.38
2024-01-07T07:14:05.343Z,-6.39
2024-01-07T07:19:07.272Z,-6.42
2024-01-07T07:24:09.024Z,-6.40
2024-01-07T07:29:11.072Z,-6.36
2024-01-07T07:34:13.559Z,-6.33
2024-01-07T07:39:15.977Z,-6.34
2024-01-07T07:44:17.691Z,-6.32
2024-01-07T07:49:19.409Z,-6.28
2024-01-07T07:54:21.211Z,-6.26
2024-01-07T07:59:22.898Z,-6.22
2024-01-07T08:04:24.818Z,-6.19
2024-01-07T08:09:26.602Z,-6.17
2024-01-07T08:14:28.399Z,-6.14
2024-01-07T08:19:30.160Z,-6.12
2024-01-07T08:24:32.023Z,-6.10
2024-01-07T08:29:33.658Z,-6.09
2024-01-07T08:34:36.338Z,-6.08
2024-01-07T08:39:38.294Z,-6.08
2024-01-07T08:44:40.635Z,-6.11
2024-01-07T08:49:42.314Z,-6.11
2024-01-07T08:54:44.029Z,-6.09
2024-01-07T08:59:45.670Z,-6.04
2024-01-07T09:04:47.300Z,-6.06
2024-01-07T09:09:49.088Z,-6.03
2024-01-07T09:14:50.858Z,-6.02
2024-01-07T09:19:52.606Z,-6.04
2024-01-07T09:24:54.497Z,-6.09
2024-01-07T09:29:56.310Z,-6.04
2024-01-07T09:34:59.176Z,-5.91
2024-01-07T09:40:01.049Z,-5.87
2024-01-07T09:45:05.208Z,-5.85
2024-01-07T09:50:08.156Z,-5.80
2024-01-07T09:55:14.043Z,-5.76
2024-01-07T10:00:17.449Z,-5.69
2024-01-07T10:05:19.243Z,-5.70
2024-01-07T10:10:21.706Z,-5.77
2024-01-07T10:15:24.048Z,-5.75
2024-01-07T10:20:25.718Z,-5.75
2024-01-07T10:25:27.552Z,-5.76
2024-01-07T10:30:30.327Z,-5.72
2024-01-07T10:35:36.954Z,-5.82
2024-01-07T10:40:39.967Z,-5.83
2024-01-07T10:45:41.861Z,-5.83
2024-01-07T10:50:51.620Z,-5.83
2024-01-07T10:56:05.152Z,-5.79
2024-01-07T11:01:08.749Z,-5.76
2024-01-07T11:06:24.751Z,-5.75
2024-01-07T11:11:42.381Z,-5.70
2024-01-07T11:16:45.408Z,-5.75
2024-01-07T11:21:47.466Z,-5.74
2024-01-07T11:26:49.843Z,-5.71
2024-01-07T11:31:52.115Z,-5.74
2024-01-07T11:36:54.170Z,-5.78
2024-01-07T11:41:56.154Z,-5.78
2024-01-07T11:46:57.833Z,-5.74
2024-01-07T11:51:59.594Z,-5.80
2024-01-07T12:03:27.234Z,-5.87
2024-01-07T12:08:28.998Z,-5.98
2024-01-07T12:13:31.234Z,-5.99
2024-01-07T12:18:33.487Z,-5.97
2024-01-07T12:23:41.678Z,-5.94
2024-01-07T12:28:45.380Z,-5.95
2024-01-07T12:33:48.231Z,-6.07
2024-01-07T12:38:50.445Z,-6.16
2024-01-07T12:43:52.120Z,-6.21
2024-01-07T12:48:53.896Z,-6.24
2024-01-07T12:53:58.059Z,-6.30
2024-01-07T12:58:59.991Z,-6.35
2024-01-07T13:04:01.915Z,-6.42
2024-01-07T13:09:07.006Z,-6.41
2024-01-07T13:14:09.862Z,-6.39
2024-01-07T13:19:12.505Z,-6.46
2024-01-07T13:24:14.389Z,-6.58
2024-01-07T13:29:16.047Z,-6.69
2024-01-07T13:34:19.436Z,-6.79
2024-01-07T13:39:22.431Z,-6.86
2024-01-07T13:44:24.697Z,-6.91
2024-01-07T13:49:26.363Z,-6.92
2024-01-07T13:54:28.182Z,-6.98
2024-01-07T13:59:29.825Z,-7.05
2024-01-07T14:04:31.736Z,-7.12
2024-01-07T14:09:33.581Z,-7.17
2024-01-07T14:14:35.268Z,-7.25
2024-01-07T14:19:36.941Z,-7.28
2024-01-07T14:24:38.742Z,-7.32
2024-01-07T14:29:40.590Z,-7.39
2024-01-07T14:34:43.100Z,-7.48
2024-01-07T14:39:46.434Z,-7.51
2024-01-07T14:44:51.342Z,-7.55
2024-01-07T14:49:53.306Z,-7.60
2024-01-07T14:54:55.022Z,-7.63
2024-01-07T14:59:56.715Z,-7.68
2024-01-07T15:04:58.937Z,-7.73
2024-01-07T15:10:01.191Z,-7.78
2024-01-07T15:15:06.928Z,-7.77
2024-01-07T15:20:10.186Z,-7.76
2024-01-07T15:25:12.169Z,-7.79
2024-01-07T15:30:16.867Z,-7.81
2024-01-07T15:35:19.528Z,-7.86
2024-01-07T15:40:21.222Z,-7.98
2024-01-07T15:45:22.980Z,-8.08
2024-01-07T15:50:24.711Z,-8.14
2024-01-07T15:55:26.411Z,-8.20
2024-01-07T16:00:28.118Z,-8.29
2024-01-07T16:05:31.138Z,-8.33
2024-01-07T16:10:32.998Z,-8.37
2024-01-07T16:15:34.930Z,-8.41
2024-01-07T16:20:36.646Z,-8.46
2024-01-07T16:25:39.249Z,-8.47
2024-01-07T16:30:41.031Z,-8.56
2024-01-07T16:35:43.543Z,-8.60
2024-01-07T16:40:45.319Z,-8.67
2024-01-07T16:45:47.126Z,-8.72
2024-01-07T16:50:51.928Z,-8.78
2024-01-07T16:55:53.907Z,-8.84
2024-01-07T17:00:58.466Z,-8.87
2024-01-07T17:06:01.835Z,-8.86
2024-01-07T17:11:03.975Z,-8.94
2024-01-07T17:16:07.336Z,-9.04
2024-01-07T17:21:09.413Z,-9.05
2024-01-07T17:26:11.208Z,-9.06
2024-01-07T17:31:13.135Z,-9.06
2024-01-07T17:36:16.723Z,-9.13
2024-01-07T17:41:18.896Z,-9.19
2024-01-07T17:46:20.668Z,-9.19
2024-01-07T17:51:23.041Z,-9.25
2024-01-07T17:56:26.403Z,-9.29
2024-01-07T18:01:28.295Z,-9.26
2024-01-07T18:06:29.963Z,-9.26
2024-01-07T18:11:34.797Z,-9.30
2024-01-07T18:16:39.925Z,-9.37
2024-01-07T18:21:43.376Z,-9.36
2024-01-07T18:26:46.581Z,-9.42
2024-01-07T18:31:50.829Z,-9.44
2024-01-07T18:36:54.197Z,-9.48
2024-01-07T18:41:56.072Z,-9.51
2024-01-07T18:46:57.772Z,-9.54
2024-01-07T18:51:59.526Z,-9.54
2024-01-07T18:57:02.159Z,-9.63
2024-01-07T19:02:05.161Z,-9.65
2024-01-07T19:07:07.380Z,-9.67
2024-01-07T19:12:09.182Z,-9.71
2024-01-07T19:17:11.217Z,-9.71
2024-01-07T19:22:13.120Z,-9.75
2024-01-07T19:27:14.919Z,-9.84
2024-01-07T19:32:20.894Z,-9.89
2024-01-07T19:37:22.708Z,-9.92
2024-01-07T19:42:24.678Z,-9.94
2024-01-07T19:47:26.653Z,-9.99
2024-01-07T19:52:29.564Z,-10.05
2024-01-07T19:57:31.390Z,-10.13
2024-01-07T20:02:35.936Z,-10.18
2024-01-07T20:07:37.758Z,-10.21
2024-01-07T20:12:39.493Z,-10.26
2024-01-07T20:17:43.823Z,-10.32
2024-01-07T20:22:45.733Z,-10.38
2024-01-07T20:27:47.437Z,-10.40
2024-01-07T20:32:49.154Z,-10.41
2024-01-07T20:37:50.934Z,-10.41
2024-01-07T20:42:53.890Z,-10.39
2024-01-07T20:47:55.750Z,-10.42
2024-01-07T20:52:57.492Z,-10.42
2024-01-07T20:57:59.227Z,-10.43
2024-01-07T21:03:00.996Z,-10.48
2024-01-07T21:08:02.653Z,-10.51
2024-01-07T21:13:05.554Z,-10.51
2024-01-07T21:18:08.458Z,-10.50
2024-01-07T21:23:10.807Z,-10.52
2024-01-07T21:28:15.798Z,-10.50
2024-01-07T21:33:19.035Z,-10.53
2024-01-07T21:38:21.584Z,-10.54
2024-01-07T21:43:26.073Z,-10.53
2024-01-07T21:48:27.928Z,-10.55
2024-01-07T21:53:29.694Z,-10.53
2024-01-07T22:04:57.395Z,-10.55
2024-01-07T22:09:59.410Z,-10.52
2024-01-07T22:15:01.230Z,-10.53
2024-01-07T22:20:04.064Z,-10.53
2024-01-07T22:25:06.262Z,-10.55
2024-01-07T22:30:11.330Z,-10.55
2024-01-07T22:35:13.151Z,-10.52
2024-01-07T22:40:14.796Z,-10.51
2024-01-07T22:45:16.452Z,-10.48
2024-01-07T22:50:18.129Z,-10.50
2024-01-07T22:55:19.979Z,-10.45
2024-01-07T23:00:31.445Z,-10.41
2024-01-07T23:05:34.601Z,-10.37
2024-01-07T23:10:37.132Z,-10.39
2024-01-07T23:15:38.885Z,-10.38
2024-01-07T23:20:40.816Z,-10.38
2024-01-07T23:25:42.593Z,-10.40
2024-01-07T23:30:46.641Z,-10.39
2024-01-07T23:35:54.747Z,-10.43
2024-01-07T23:41:04.701Z,-10.44
2024-01-07T23:46:06.887Z,-10.46
2024-01-07T23:51:08.791Z,-10.48
2024-01-07T23:56:10.567Z,-10.49
